Seattle Express — A8GU5 — position and weather

sailwx.info

Track history (hours):
 
Tides and Currents Weather Stations Pressure Air Temp Water Temp Dewpoint Dewpoint Depression Visibility Wind Speed Wind Dir Waves Ship Positions

Seattle Express

Last reported at 2015-Aug-02 12:00 UTC. Time now 2015-Aug-02 18:22 UTC.
Position N 05°54' W 079°42'.

Length 264.1 m; beam 32.3 m; draft 12.5 m.

Type: Ship (hazmat cat A). MMSI: 636090860.

Wind from 250 at 7 knots

Barometer 1008.7 mb
Air temperature 27.0 ° C
Visibility: greater than 5.4 NM
Dewpoint 24.9 ° C

Date/timePositionNaut miles runAvg speedWind from/ knotsBaromVisibWave heightAir tempDewpointWater temp
2015-Aug-02 12:00N 05°54' W 079°42'   250 / 71008.7 5.4 27.024.9
2015-Jul-30 00:00N 15°48' W 076°18'61614.1 100 / 221013.610.8 27.520.7
2015-Jul-28 04:25N 25°38' W 079°27'4414.9
2015-Jul-28 01:27N 26°18' W 079°05'1916.9
2015-Jul-28 00:20N 26°29' W 078°48'3 4.1
2015-Jul-27 23:33N 26°32' W 078°46'  
2015-Jul-24 09:28N 38°25' W 074°43'1314.7
2015-Jul-24 08:33N 38°36' W 074°52'1514.7
2015-Jul-24 07:33N 38°48' W 075°03'1413.5
2015-Jul-24 06:33N 39°01' W 075°09'1615.7
2015-Jul-24 05:33N 39°15' W 075°19'1616.3
2015-Jul-24 04:33N 39°27' W 075°33'1514.8
2015-Jul-24 03:33N 39°41' W 075°31'1211.7
2015-Jul-24 02:34N 39°50' W 075°21'10 9.8
2015-Jul-24 01:34N 39°53' W 075°09'1 1.2
2015-Jul-24 00:34N 39°54' W 075°08'0 0.0
2015-Jul-23 23:32N 39°54' W 075°08'0 0.0
2015-Jul-23 22:32N 39°54' W 075°08'0 0.0
2015-Jul-23 21:29N 39°54' W 075°08'0 0.0
2015-Jul-23 20:32N 39°54' W 075°08'0 0.0
2015-Jul-23 19:32N 39°54' W 075°08'0 0.0
2015-Jul-23 18:32N 39°54' W 075°08'0 0.0
2015-Jul-23 17:32N 39°54' W 075°08'0 0.0
2015-Jul-23 16:32N 39°54' W 075°08'0 0.0
2015-Jul-23 15:33N 39°54' W 075°08'6 6.1
2015-Jul-23 14:34N 39°51' W 075°15'1110.6
2015-Jul-23 13:33N 39°47' W 075°28'1212.0
2015-Jul-23 12:33N 39°36' W 075°34'  
Track history (hours):
 
Tides and Currents Weather Stations Pressure Air Temp Water Temp Dewpoint Dewpoint Depression Visibility Wind Speed Wind Dir Waves Ship Positions

Seattle Express

Last reported at 2015-Aug-02 12:00 UTC. Time now 2015-Aug-02 18:22 UTC.
Position N 05°54' W 079°42'.

Length 264.1 m; beam 32.3 m; draft 12.5 m.

Type: Ship (hazmat cat A). MMSI: 636090860.

Wind from 250 at 7 knots

Barometer 1008.7 mb
Air temperature 27.0 ° C
Visibility: greater than 5.4 NM
Dewpoint 24.9 ° C

Date/timePositionNaut miles runAvg speedWind from/ knotsBaromVisibWave heightAir tempDewpointWater temp
2015-Aug-02 12:00N 05°54' W 079°42'   250 / 71008.7 5.4 27.024.9
2015-Jul-30 00:00N 15°48' W 076°18'61614.1 100 / 221013.610.8 27.520.7
2015-Jul-28 04:25N 25°38' W 079°27'4414.9
2015-Jul-28 01:27N 26°18' W 079°05'1916.9
2015-Jul-28 00:20N 26°29' W 078°48'3 4.1
2015-Jul-27 23:33N 26°32' W 078°46'  
2015-Jul-24 09:28N 38°25' W 074°43'1314.7
2015-Jul-24 08:33N 38°36' W 074°52'1514.7
2015-Jul-24 07:33N 38°48' W 075°03'1413.5
2015-Jul-24 06:33N 39°01' W 075°09'1615.7
2015-Jul-24 05:33N 39°15' W 075°19'1616.3
2015-Jul-24 04:33N 39°27' W 075°33'1514.8
2015-Jul-24 03:33N 39°41' W 075°31'1211.7
2015-Jul-24 02:34N 39°50' W 075°21'10 9.8
2015-Jul-24 01:34N 39°53' W 075°09'1 1.2
2015-Jul-24 00:34N 39°54' W 075°08'0 0.0
2015-Jul-23 23:32N 39°54' W 075°08'0 0.0
2015-Jul-23 22:32N 39°54' W 075°08'0 0.0
2015-Jul-23 21:29N 39°54' W 075°08'0 0.0
2015-Jul-23 20:32N 39°54' W 075°08'0 0.0
2015-Jul-23 19:32N 39°54' W 075°08'0 0.0
2015-Jul-23 18:32N 39°54' W 075°08'0 0.0
2015-Jul-23 17:32N 39°54' W 075°08'0 0.0
2015-Jul-23 16:32N 39°54' W 075°08'0 0.0
2015-Jul-23 15:33N 39°54' W 075°08'6 6.1
2015-Jul-23 14:34N 39°51' W 075°15'1110.6
2015-Jul-23 13:33N 39°47' W 075°28'1212.0
2015-Jul-23 12:33N 39°36' W 075°34'  

Dump ship's entire track history